Terminal Aerodrome Forecast
Issued by NWS

Home | Current Version | Previous Version | Text Only | Print | Product List | Glossary On
Versions: 1 2 3 4 5 6 7 8 9 10 11 12 13 14 15 16 17 18 19 20 21 22 23 24 25 26 27 28 29 30 31 32 33 34 35 36 37
000
FTUS41 KRNK 041733
TAFBCB
TAF
KBCB 041733Z 0418/0518 02006KT P6SM VCSH BKN040
     FM042000 02006KT P6SM VCTS BKN050CB
     FM050300 05004KT P6SM VCSH BKN050
     FM050800 00000KT 4SM BR SCT010 BKN020
     FM051400 10003KT P6SM SCT020 BKN040=

USA.gov is the U.S. government's official web portal to all federal, state and local government web resources and services.